Dollard-Des-Ormeaux, Canada
Current Conditions -  °F | °C
As of 6:00 PM on Saturday 20 Dec 2014 (Local Time) from CYUL Reporting Station
Few Clouds Few Clouds  
Wind Chill:   Ceiling: Unl
Heat Index: 12°   Visibility: 10mi
Dew Point:   Wind: 9mph
Humidity: 85%   Direction: 50°NE
Pressure: 30.35"   Gusts: NA
Location:  45.45°N, 73.85°W
Report Text: CYUL 202300Z 05008KT 10SM FEW012 M11/M13 A3035 RMK SF1 SLP279
Loading
Personal Weather Stations






























Interactive Weather Map New forecast layout! Learn more

10-Day Weather Forecast

Advertisements
Track Severe Weather on mobile